Airfield :
LOGIN :

Register | Disclaimer

   EN    FR    IT 

 










Legend :    VFR   Marginal VFR   IFR   Intensive IFR   Very Intensive IFR
Visi :
Ceiling :
>= 8 km
>= 3000ft
5 to 8 km
1000 to 3000 ft
1500m to 5 km
500 to 1000 ft
800 to 1500m
200 to 500 ft
< 800m
< 200 ft
Symbols :   Thunderstorms  Fog  Heavy snow  Heavy precipitations  Wind > 20 kt
SIGMETs :     Misc.  Thunderstorms  Icing  Turbulence  Mountain Waves  Volcanic Ashes






- Airport Elevation : 97 ft
- IATA code : FRL


LIPK - Forli

CURRENT METAR :
  • 241050Z 26006KT 9999 FEW020 14/02 Q1008

EXPIRED METARs :
  • 240950Z VRB01KT 9999 SCT025 13/04 Q1008
  • 240850Z 00000KT 9999 SCT025 09/03 Q1007
  • 240750Z 10004KT 9999 SCT035 08/01 Q1007
  • 240700Z VRB02KT 9999 FEW045 07/01 Q1006

TAF TAF LIPK
Valid from the 24 at 12:00 until the 25 at 12:00 UTC


241100Z 2412/2512 24010KT 9999 SCT030
PROB40
TEMPO 2414/2420 SHRA
BECMG 2418/2420 VRB05KT



MET'MAP, your aeronautical weather chart ! - Copyright ORBIFLY December 2007 - Disclaimer

ORBIFLY MET'MAP TEAM :

Programming & Development : Alexandra Zaïnal
Original concept : Baudouin d'Aumeries
Technical & hardware support : Manuel Goepfert
Assistance : Marc-Olivier Méhu




SOURCES & CREDITS :

   NOAA